sensor_id;sensor_type;location;lat;lon;timestamp;pressure;altitude;pressure_sealevel;temperature
71463;BMP180;59266;52.608;13.260;2022-08-19T00:01:35;100626.00;;;21.80
71463;BMP180;59266;52.608;13.260;2022-08-19T00:04:06;100623.00;;;21.80
71463;BMP180;59266;52.608;13.260;2022-08-19T00:06:34;100614.00;;;21.60
71463;BMP180;59266;52.608;13.260;2022-08-19T00:09:03;100609.00;;;21.60
71463;BMP180;59266;52.608;13.260;2022-08-19T00:11:30;100611.00;;;21.70
71463;BMP180;59266;52.608;13.260;2022-08-19T00:13:57;100609.00;;;21.70
71463;BMP180;59266;52.608;13.260;2022-08-19T00:16:25;100612.00;;;21.70
71463;BMP180;59266;52.608;13.260;2022-08-19T00:18:53;100616.00;;;21.70
71463;BMP180;59266;52.608;13.260;2022-08-19T00:21:24;100607.00;;;21.70
71463;BMP180;59266;52.608;13.260;2022-08-19T00:23:53;100610.00;;;21.70
71463;BMP180;59266;52.608;13.260;2022-08-19T00:26:20;100614.00;;;21.60
71463;BMP180;59266;52.608;13.260;2022-08-19T00:28:47;100619.00;;;21.60
71463;BMP180;59266;52.608;13.260;2022-08-19T00:31:14;100609.00;;;21.60
71463;BMP180;59266;52.608;13.260;2022-08-19T00:33:45;100614.00;;;21.70
71463;BMP180;59266;52.608;13.260;2022-08-19T00:36:12;100612.00;;;21.70
71463;BMP180;59266;52.608;13.260;2022-08-19T00:38:39;100613.00;;;21.80
71463;BMP180;59266;52.608;13.260;2022-08-19T00:41:10;100618.00;;;21.90
71463;BMP180;59266;52.608;13.260;2022-08-19T00:43:38;100608.00;;;21.90
71463;BMP180;59266;52.608;13.260;2022-08-19T00:46:06;100611.00;;;22.00
71463;BMP180;59266;52.608;13.260;2022-08-19T00:48:34;100615.00;;;22.00
71463;BMP180;59266;52.608;13.260;2022-08-19T00:51:03;100611.00;;;21.80
71463;BMP180;59266;52.608;13.260;2022-08-19T00:53:31;100611.00;;;21.60
71463;BMP180;59266;52.608;13.260;2022-08-19T00:56:02;100617.00;;;21.90
71463;BMP180;59266;52.608;13.260;2022-08-19T00:58:32;100617.00;;;21.80
71463;BMP180;59266;52.608;13.260;2022-08-19T01:01:00;100618.00;;;21.90
71463;BMP180;59266;52.608;13.260;2022-08-19T01:03:27;100609.00;;;21.70
71463;BMP180;59266;52.608;13.260;2022-08-19T01:06:14;100613.00;;;21.70
71463;BMP180;59266;52.608;13.260;2022-08-19T01:08:45;100603.00;;;21.70
71463;BMP180;59266;52.608;13.260;2022-08-19T01:11:15;100603.00;;;21.80
71463;BMP180;59266;52.608;13.260;2022-08-19T01:13:43;100602.00;;;21.70
71463;BMP180;59266;52.608;13.260;2022-08-19T01:16:16;100594.00;;;21.30
71463;BMP180;59266;52.608;13.260;2022-08-19T01:18:43;100603.00;;;21.30
71463;BMP180;59266;52.608;13.260;2022-08-19T01:21:18;100603.00;;;21.50
71463;BMP180;59266;52.608;13.260;2022-08-19T01:23:48;100605.00;;;21.50
71463;BMP180;59266;52.608;13.260;2022-08-19T01:26:18;100610.00;;;21.60
71463;BMP180;59266;52.608;13.260;2022-08-19T01:28:47;100606.00;;;21.60
71463;BMP180;59266;52.608;13.260;2022-08-19T01:31:21;100605.00;;;21.60
71463;BMP180;59266;52.608;13.260;2022-08-19T01:33:55;100608.00;;;21.60
71463;BMP180;59266;52.608;13.260;2022-08-19T01:36:42;100613.00;;;21.50
71463;BMP180;59266;52.608;13.260;2022-08-19T01:39:14;100625.00;;;21.50
71463;BMP180;59266;52.608;13.260;2022-08-19T01:41:41;100635.00;;;21.40
71463;BMP180;59266;52.608;13.260;2022-08-19T01:44:09;100633.00;;;21.50
71463;BMP180;59266;52.608;13.260;2022-08-19T01:46:45;100640.00;;;21.60
71463;BMP180;59266;52.608;13.260;2022-08-19T01:49:13;100637.00;;;21.70
71463;BMP180;59266;52.608;13.260;2022-08-19T01:51:40;100644.00;;;21.60
71463;BMP180;59266;52.608;13.260;2022-08-19T01:54:09;100638.00;;;21.60
71463;BMP180;59266;52.608;13.260;2022-08-19T01:56:36;100638.00;;;21.60
71463;BMP180;59266;52.608;13.260;2022-08-19T01:59:06;100640.00;;;21.60
71463;BMP180;59266;52.608;13.260;2022-08-19T02:01:35;100652.00;;;21.80
71463;BMP180;59266;52.608;13.260;2022-08-19T02:04:02;100655.00;;;21.60
71463;BMP180;59266;52.608;13.260;2022-08-19T02:06:29;100660.00;;;21.60
71463;BMP180;59266;52.608;13.260;2022-08-19T02:08:56;100668.00;;;21.60
71463;BMP180;59266;52.608;13.260;2022-08-19T02:11:28;100670.00;;;21.70
71463;BMP180;59266;52.608;13.260;2022-08-19T02:13:58;100674.00;;;21.70
71463;BMP180;59266;52.608;13.260;2022-08-19T02:16:24;100659.00;;;21.50
71463;BMP180;59266;52.608;13.260;2022-08-19T02:18:51;100649.00;;;21.30
71463;BMP180;59266;52.608;13.260;2022-08-19T02:21:20;100630.00;;;21.20
71463;BMP180;59266;52.608;13.260;2022-08-19T02:23:47;100627.00;;;21.20
71463;BMP180;59266;52.608;13.260;2022-08-19T02:26:14;100608.00;;;21.10
71463;BMP180;59266;52.608;13.260;2022-08-19T02:28:41;100578.00;;;21.00
71463;BMP180;59266;52.608;13.260;2022-08-19T02:31:14;100577.00;;;21.00
71463;BMP180;59266;52.608;13.260;2022-08-19T02:33:41;100562.00;;;21.00
71463;BMP180;59266;52.608;13.260;2022-08-19T02:36:09;100572.00;;;21.00
71463;BMP180;59266;52.608;13.260;2022-08-19T02:38:36;100547.00;;;20.90
71463;BMP180;59266;52.608;13.260;2022-08-19T02:41:11;100532.00;;;20.80
71463;BMP180;59266;52.608;13.260;2022-08-19T02:43:38;100543.00;;;20.80
71463;BMP180;59266;52.608;13.260;2022-08-19T02:46:28;100541.00;;;20.70
71463;BMP180;59266;52.608;13.260;2022-08-19T02:48:57;100547.00;;;20.80
71463;BMP180;59266;52.608;13.260;2022-08-19T02:51:35;100556.00;;;21.00
71463;BMP180;59266;52.608;13.260;2022-08-19T02:54:03;100540.00;;;20.90
71463;BMP180;59266;52.608;13.260;2022-08-19T02:56:30;100528.00;;;20.80
71463;BMP180;59266;52.608;13.260;2022-08-19T02:58:57;100529.00;;;20.90
71463;BMP180;59266;52.608;13.260;2022-08-19T03:01:29;100523.00;;;20.80
71463;BMP180;59266;52.608;13.260;2022-08-19T03:03:58;100529.00;;;20.80
71463;BMP180;59266;52.608;13.260;2022-08-19T03:06:27;100517.00;;;20.80
71463;BMP180;59266;52.608;13.260;2022-08-19T03:08:54;100511.00;;;20.70
71463;BMP180;59266;52.608;13.260;2022-08-19T03:11:25;100525.00;;;20.70
71463;BMP180;59266;52.608;13.260;2022-08-19T03:13:53;100531.00;;;20.80
71463;BMP180;59266;52.608;13.260;2022-08-19T03:16:23;100533.00;;;21.00
71463;BMP180;59266;52.608;13.260;2022-08-19T03:18:51;100532.00;;;21.00
71463;BMP180;59266;52.608;13.260;2022-08-19T03:21:24;100518.00;;;21.00
71463;BMP180;59266;52.608;13.260;2022-08-19T03:23:55;100528.00;;;21.00
71463;BMP180;59266;52.608;13.260;2022-08-19T03:26:21;100527.00;;;20.90
71463;BMP180;59266;52.608;13.260;2022-08-19T03:28:48;100535.00;;;21.00
71463;BMP180;59266;52.608;13.260;2022-08-19T03:31:24;100534.00;;;21.00
71463;BMP180;59266;52.608;13.260;2022-08-19T03:34:25;100539.00;;;20.80
71463;BMP180;59266;52.608;13.260;2022-08-19T03:36:55;100537.00;;;20.90
71463;BMP180;59266;52.608;13.260;2022-08-19T03:39:24;100533.00;;;20.80
71463;BMP180;59266;52.608;13.260;2022-08-19T03:41:52;100527.00;;;20.80
71463;BMP180;59266;52.608;13.260;2022-08-19T03:44:38;100519.00;;;20.60
71463;BMP180;59266;52.608;13.260;2022-08-19T03:47:05;100522.00;;;20.60
71463;BMP180;59266;52.608;13.260;2022-08-19T03:49:32;100522.00;;;20.50
71463;BMP180;59266;52.608;13.260;2022-08-19T03:52:03;100526.00;;;20.50
71463;BMP180;59266;52.608;13.260;2022-08-19T03:54:33;100534.00;;;20.50
71463;BMP180;59266;52.608;13.260;2022-08-19T03:57:00;100529.00;;;20.50
71463;BMP180;59266;52.608;13.260;2022-08-19T03:59:31;100530.00;;;20.50
71463;BMP180;59266;52.608;13.260;2022-08-19T04:02:00;100537.00;;;20.60
71463;BMP180;59266;52.608;13.260;2022-08-19T04:04:28;100524.00;;;20.50
71463;BMP180;59266;52.608;13.260;2022-08-19T04:06:57;100528.00;;;20.50
71463;BMP180;59266;52.608;13.260;2022-08-19T04:09:24;100530.00;;;20.60
71463;BMP180;59266;52.608;13.260;2022-08-19T04:11:54;100525.00;;;20.50
71463;BMP180;59266;52.608;13.260;2022-08-19T04:14:24;100517.00;;;20.60
71463;BMP180;59266;52.608;13.260;2022-08-19T04:16:52;100521.00;;;20.60
71463;BMP180;59266;52.608;13.260;2022-08-19T04:19:18;100511.00;;;20.60
71463;BMP180;59266;52.608;13.260;2022-08-19T04:21:47;100521.00;;;20.60
71463;BMP180;59266;52.608;13.260;2022-08-19T04:24:14;100520.00;;;20.50
71463;BMP180;59266;52.608;13.260;2022-08-19T04:26:41;100530.00;;;20.50
71463;BMP180;59266;52.608;13.260;2022-08-19T04:29:11;100540.00;;;20.60
71463;BMP180;59266;52.608;13.260;2022-08-19T04:31:39;100540.00;;;20.60
71463;BMP180;59266;52.608;13.260;2022-08-19T04:34:08;100549.00;;;20.60
71463;BMP180;59266;52.608;13.260;2022-08-19T04:36:38;100552.00;;;20.70
71463;BMP180;59266;52.608;13.260;2022-08-19T04:39:09;100549.00;;;20.70
71463;BMP180;59266;52.608;13.260;2022-08-19T04:41:36;100547.00;;;20.80
71463;BMP180;59266;52.608;13.260;2022-08-19T04:44:21;100546.00;;;20.70
71463;BMP180;59266;52.608;13.260;2022-08-19T04:46:49;100553.00;;;20.50
71463;BMP180;59266;52.608;13.260;2022-08-19T04:49:19;100551.00;;;20.50
71463;BMP180;59266;52.608;13.260;2022-08-19T04:51:46;100547.00;;;20.60
71463;BMP180;59266;52.608;13.260;2022-08-19T04:54:17;100539.00;;;20.60
71463;BMP180;59266;52.608;13.260;2022-08-19T04:57:05;100540.00;;;20.60
71463;BMP180;59266;52.608;13.260;2022-08-19T04:59:33;100548.00;;;20.60
71463;BMP180;59266;52.608;13.260;2022-08-19T05:02:00;100548.00;;;20.60
71463;BMP180;59266;52.608;13.260;2022-08-19T05:04:27;100536.00;;;20.60
71463;BMP180;59266;52.608;13.260;2022-08-19T05:06:59;100539.00;;;20.60
71463;BMP180;59266;52.608;13.260;2022-08-19T05:09:28;100540.00;;;20.50
71463;BMP180;59266;52.608;13.260;2022-08-19T05:12:14;100542.00;;;20.50
71463;BMP180;59266;52.608;13.260;2022-08-19T05:14:41;100541.00;;;20.50
71463;BMP180;59266;52.608;13.260;2022-08-19T05:17:08;100535.00;;;20.60
71463;BMP180;59266;52.608;13.260;2022-08-19T05:19:52;100530.00;;;20.60
71463;BMP180;59266;52.608;13.260;2022-08-19T05:22:37;100524.00;;;20.70
71463;BMP180;59266;52.608;13.260;2022-08-19T05:25:07;100515.00;;;20.80
71463;BMP180;59266;52.608;13.260;2022-08-19T05:27:39;100507.00;;;20.90
71463;BMP180;59266;52.608;13.260;2022-08-19T05:30:06;100496.00;;;21.10
71463;BMP180;59266;52.608;13.260;2022-08-19T05:32:33;100496.00;;;21.20
71463;BMP180;59266;52.608;13.260;2022-08-19T05:35:02;100484.00;;;21.30
71463;BMP180;59266;52.608;13.260;2022-08-19T05:37:28;100487.00;;;21.30
71463;BMP180;59266;52.608;13.260;2022-08-19T05:39:55;100486.00;;;21.50
71463;BMP180;59266;52.608;13.260;2022-08-19T05:42:22;100493.00;;;21.70
71463;BMP180;59266;52.608;13.260;2022-08-19T05:44:51;100500.00;;;21.80
71463;BMP180;59266;52.608;13.260;2022-08-19T05:47:18;100499.00;;;22.00
71463;BMP180;59266;52.608;13.260;2022-08-19T05:49:46;100496.00;;;22.40
71463;BMP180;59266;52.608;13.260;2022-08-19T05:52:14;100505.00;;;22.50
71463;BMP180;59266;52.608;13.260;2022-08-19T05:54:44;100495.00;;;22.60
71463;BMP180;59266;52.608;13.260;2022-08-19T05:57:20;100503.00;;;22.90
71463;BMP180;59266;52.608;13.260;2022-08-19T05:59:46;100497.00;;;22.90
71463;BMP180;59266;52.608;13.260;2022-08-19T06:02:18;100504.00;;;23.40
71463;BMP180;59266;52.608;13.260;2022-08-19T06:04:45;100502.00;;;23.60
71463;BMP180;59266;52.608;13.260;2022-08-19T06:07:12;100503.00;;;24.00
71463;BMP180;59266;52.608;13.260;2022-08-19T06:09:39;100511.00;;;23.90
71463;BMP180;59266;52.608;13.260;2022-08-19T06:12:06;100512.00;;;24.00
71463;BMP180;59266;52.608;13.260;2022-08-19T06:14:35;100516.00;;;24.20
71463;BMP180;59266;52.608;13.260;2022-08-19T06:17:07;100525.00;;;24.20
71463;BMP180;59266;52.608;13.260;2022-08-19T06:19:34;100529.00;;;24.10
71463;BMP180;59266;52.608;13.260;2022-08-19T06:22:07;100535.00;;;23.90
71463;BMP180;59266;52.608;13.260;2022-08-19T06:24:34;100534.00;;;24.00
71463;BMP180;59266;52.608;13.260;2022-08-19T06:27:02;100533.00;;;23.80
71463;BMP180;59266;52.608;13.260;2022-08-19T06:29:29;100536.00;;;24.00
71463;BMP180;59266;52.608;13.260;2022-08-19T06:31:59;100522.00;;;23.80
71463;BMP180;59266;52.608;13.260;2022-08-19T06:34:27;100513.00;;;23.60
71463;BMP180;59266;52.608;13.260;2022-08-19T06:36:56;100521.00;;;23.70
71463;BMP180;59266;52.608;13.260;2022-08-19T06:39:25;100514.00;;;24.00
71463;BMP180;59266;52.608;13.260;2022-08-19T06:41:58;100523.00;;;24.00
71463;BMP180;59266;52.608;13.260;2022-08-19T06:44:27;100516.00;;;24.80
71463;BMP180;59266;52.608;13.260;2022-08-19T06:46:55;100535.00;;;24.80
71463;BMP180;59266;52.608;13.260;2022-08-19T06:49:23;100538.00;;;24.90
71463;BMP180;59266;52.608;13.260;2022-08-19T06:51:50;100549.00;;;24.60
71463;BMP180;59266;52.608;13.260;2022-08-19T06:54:18;100551.00;;;24.80
71463;BMP180;59266;52.608;13.260;2022-08-19T06:56:46;100554.00;;;24.90
71463;BMP180;59266;52.608;13.260;2022-08-19T06:59:16;100556.00;;;24.30
71463;BMP180;59266;52.608;13.260;2022-08-19T07:01:51;100552.00;;;24.50
71463;BMP180;59266;52.608;13.260;2022-08-19T07:04:21;100563.00;;;24.10
71463;BMP180;59266;52.608;13.260;2022-08-19T07:06:49;100573.00;;;24.20
71463;BMP180;59266;52.608;13.260;2022-08-19T07:09:20;100578.00;;;24.00
71463;BMP180;59266;52.608;13.260;2022-08-19T07:11:49;100572.00;;;24.40
71463;BMP180;59266;52.608;13.260;2022-08-19T07:14:18;100571.00;;;24.60
71463;BMP180;59266;52.608;13.260;2022-08-19T07:16:48;100570.00;;;24.80
71463;BMP180;59266;52.608;13.260;2022-08-19T07:19:16;100570.00;;;24.90
71463;BMP180;59266;52.608;13.260;2022-08-19T07:21:47;100563.00;;;25.20
71463;BMP180;59266;52.608;13.260;2022-08-19T07:24:16;100561.00;;;25.40
71463;BMP180;59266;52.608;13.260;2022-08-19T07:26:43;100573.00;;;25.20
71463;BMP180;59266;52.608;13.260;2022-08-19T07:29:11;100565.00;;;25.20
71463;BMP180;59266;52.608;13.260;2022-08-19T07:31:39;100562.00;;;24.90
71463;BMP180;59266;52.608;13.260;2022-08-19T07:34:12;100572.00;;;25.00
71463;BMP180;59266;52.608;13.260;2022-08-19T07:36:42;100572.00;;;24.70
71463;BMP180;59266;52.608;13.260;2022-08-19T07:39:17;100587.00;;;24.80
71463;BMP180;59266;52.608;13.260;2022-08-19T07:41:45;100574.00;;;24.20
71463;BMP180;59266;52.608;13.260;2022-08-19T07:44:14;100586.00;;;24.30
71463;BMP180;59266;52.608;13.260;2022-08-19T07:46:44;100590.00;;;24.20
71463;BMP180;59266;52.608;13.260;2022-08-19T07:49:15;100591.00;;;24.10
71463;BMP180;59266;52.608;13.260;2022-08-19T07:54:23;100598.00;;;24.10
71463;BMP180;59266;52.608;13.260;2022-08-19T07:56:49;100591.00;;;24.30
71463;BMP180;59266;52.608;13.260;2022-08-19T07:59:18;100591.00;;;24.40
71463;BMP180;59266;52.608;13.260;2022-08-19T08:01:46;100598.00;;;24.40
71463;BMP180;59266;52.608;13.260;2022-08-19T08:04:13;100605.00;;;24.40
71463;BMP180;59266;52.608;13.260;2022-08-19T08:06:58;100599.00;;;24.20
71463;BMP180;59266;52.608;13.260;2022-08-19T08:09:44;100604.00;;;24.40
71463;BMP180;59266;52.608;13.260;2022-08-19T08:12:19;100602.00;;;24.80
71463;BMP180;59266;52.608;13.260;2022-08-19T08:15:06;100613.00;;;24.30
71463;BMP180;59266;52.608;13.260;2022-08-19T08:17:37;100612.00;;;24.20
71463;BMP180;59266;52.608;13.260;2022-08-19T08:20:17;100621.00;;;24.40
71463;BMP180;59266;52.608;13.260;2022-08-19T08:22:45;100618.00;;;24.60
71463;BMP180;59266;52.608;13.260;2022-08-19T08:25:31;100613.00;;;24.90
71463;BMP180;59266;52.608;13.260;2022-08-19T08:28:01;100613.00;;;25.30
71463;BMP180;59266;52.608;13.260;2022-08-19T08:30:29;100618.00;;;25.30
71463;BMP180;59266;52.608;13.260;2022-08-19T08:32:57;100628.00;;;25.20
71463;BMP180;59266;52.608;13.260;2022-08-19T08:35:24;100636.00;;;25.10
71463;BMP180;59266;52.608;13.260;2022-08-19T08:37:52;100641.00;;;24.80
71463;BMP180;59266;52.608;13.260;2022-08-19T08:40:29;100643.00;;;24.50
71463;BMP180;59266;52.608;13.260;2022-08-19T08:43:28;100639.00;;;24.40
71463;BMP180;59266;52.608;13.260;2022-08-19T08:46:05;100646.00;;;24.40
71463;BMP180;59266;52.608;13.260;2022-08-19T08:48:47;100650.00;;;24.60
71463;BMP180;59266;52.608;13.260;2022-08-19T08:51:25;100653.00;;;24.50
71463;BMP180;59266;52.608;13.260;2022-08-19T08:54:00;100651.00;;;24.30
71463;BMP180;59266;52.608;13.260;2022-08-19T08:56:27;100646.00;;;24.40
71463;BMP180;59266;52.608;13.260;2022-08-19T08:59:03;100642.00;;;24.60
71463;BMP180;59266;52.608;13.260;2022-08-19T09:01:33;100648.00;;;24.70
71463;BMP180;59266;52.608;13.260;2022-08-19T09:04:03;100645.00;;;24.70
71463;BMP180;59266;52.608;13.260;2022-08-19T09:10:02;100666.00;;;24.70
71463;BMP180;59266;52.608;13.260;2022-08-19T09:12:43;100662.00;;;24.30
71463;BMP180;59266;52.608;13.260;2022-08-19T09:15:14;100662.00;;;24.40
71463;BMP180;59266;52.608;13.260;2022-08-19T09:17:54;100655.00;;;24.40
71463;BMP180;59266;52.608;13.260;2022-08-19T09:20:23;100657.00;;;24.70
71463;BMP180;59266;52.608;13.260;2022-08-19T09:22:51;100656.00;;;24.70
71463;BMP180;59266;52.608;13.260;2022-08-19T09:25:20;100658.00;;;24.50
71463;BMP180;59266;52.608;13.260;2022-08-19T09:27:55;100654.00;;;24.60
71463;BMP180;59266;52.608;13.260;2022-08-19T09:30:39;100642.00;;;25.10
71463;BMP180;59266;52.608;13.260;2022-08-19T09:33:07;100631.00;;;25.30
71463;BMP180;59266;52.608;13.260;2022-08-19T09:35:33;100618.00;;;25.80
71463;BMP180;59266;52.608;13.260;2022-08-19T09:38:15;100613.00;;;26.10
71463;BMP180;59266;52.608;13.260;2022-08-19T09:40:42;100606.00;;;25.80
71463;BMP180;59266;52.608;13.260;2022-08-19T09:43:08;100611.00;;;26.00
71463;BMP180;59266;52.608;13.260;2022-08-19T09:45:39;100615.00;;;25.90
71463;BMP180;59266;52.608;13.260;2022-08-19T09:48:06;100623.00;;;25.20
71463;BMP180;59266;52.608;13.260;2022-08-19T09:50:34;100629.00;;;25.60
71463;BMP180;59266;52.608;13.260;2022-08-19T09:53:17;100628.00;;;25.60
71463;BMP180;59266;52.608;13.260;2022-08-19T09:55:44;100621.00;;;25.50
71463;BMP180;59266;52.608;13.260;2022-08-19T09:58:11;100623.00;;;25.80
71463;BMP180;59266;52.608;13.260;2022-08-19T10:00:38;100620.00;;;25.50
71463;BMP180;59266;52.608;13.260;2022-08-19T10:03:05;100629.00;;;25.70
71463;BMP180;59266;52.608;13.260;2022-08-19T10:05:33;100628.00;;;26.20
71463;BMP180;59266;52.608;13.260;2022-08-19T10:08:25;100627.00;;;25.70
71463;BMP180;59266;52.608;13.260;2022-08-19T10:10:53;100636.00;;;25.90
71463;BMP180;59266;52.608;13.260;2022-08-19T10:13:21;100633.00;;;26.00
71463;BMP180;59266;52.608;13.260;2022-08-19T10:15:52;100630.00;;;25.50
71463;BMP180;59266;52.608;13.260;2022-08-19T10:18:22;100628.00;;;26.20
71463;BMP180;59266;52.608;13.260;2022-08-19T10:20:50;100625.00;;;25.40
71463;BMP180;59266;52.608;13.260;2022-08-19T10:23:20;100627.00;;;25.60
71463;BMP180;59266;52.608;13.260;2022-08-19T10:25:47;100629.00;;;26.10
71463;BMP180;59266;52.608;13.260;2022-08-19T10:28:14;100621.00;;;26.00
71463;BMP180;59266;52.608;13.260;2022-08-19T10:30:40;100625.00;;;25.40
71463;BMP180;59266;52.608;13.260;2022-08-19T10:33:08;100625.00;;;25.30
71463;BMP180;59266;52.608;13.260;2022-08-19T10:35:36;100623.00;;;25.50
71463;BMP180;59266;52.608;13.260;2022-08-19T10:38:22;100626.00;;;25.00
71463;BMP180;59266;52.608;13.260;2022-08-19T10:41:05;100628.00;;;24.90
71463;BMP180;59266;52.608;13.260;2022-08-19T10:43:32;100629.00;;;25.20
71463;BMP180;59266;52.608;13.260;2022-08-19T10:46:09;100631.00;;;25.50
71463;BMP180;59266;52.608;13.260;2022-08-19T10:48:42;100635.00;;;25.60
71463;BMP180;59266;52.608;13.260;2022-08-19T10:51:09;100633.00;;;25.70
71463;BMP180;59266;52.608;13.260;2022-08-19T10:53:55;100622.00;;;25.90
71463;BMP180;59266;52.608;13.260;2022-08-19T10:56:23;100617.00;;;25.20
71463;BMP180;59266;52.608;13.260;2022-08-19T10:59:09;100617.00;;;25.10
71463;BMP180;59266;52.608;13.260;2022-08-19T11:01:36;100619.00;;;25.20
71463;BMP180;59266;52.608;13.260;2022-08-19T11:04:03;100620.00;;;25.40
71463;BMP180;59266;52.608;13.260;2022-08-19T11:06:33;100610.00;;;25.00
71463;BMP180;59266;52.608;13.260;2022-08-19T11:09:00;100622.00;;;25.30
71463;BMP180;59266;52.608;13.260;2022-08-19T11:11:26;100622.00;;;25.20
71463;BMP180;59266;52.608;13.260;2022-08-19T11:13:54;100626.00;;;25.20
71463;BMP180;59266;52.608;13.260;2022-08-19T11:16:23;100628.00;;;25.50
71463;BMP180;59266;52.608;13.260;2022-08-19T11:18:54;100633.00;;;25.30
71463;BMP180;59266;52.608;13.260;2022-08-19T11:21:27;100623.00;;;25.10
71463;BMP180;59266;52.608;13.260;2022-08-19T11:23:57;100626.00;;;24.50
71463;BMP180;59266;52.608;13.260;2022-08-19T11:26:24;100628.00;;;24.60
71463;BMP180;59266;52.608;13.260;2022-08-19T11:28:51;100632.00;;;24.40
71463;BMP180;59266;52.608;13.260;2022-08-19T11:31:23;100624.00;;;24.40
71463;BMP180;59266;52.608;13.260;2022-08-19T11:33:56;100628.00;;;24.60
71463;BMP180;59266;52.608;13.260;2022-08-19T11:36:23;100635.00;;;25.20
71463;BMP180;59266;52.608;13.260;2022-08-19T11:38:50;100635.00;;;25.70
71463;BMP180;59266;52.608;13.260;2022-08-19T11:41:19;100638.00;;;25.20
71463;BMP180;59266;52.608;13.260;2022-08-19T11:43:46;100638.00;;;25.70
71463;BMP180;59266;52.608;13.260;2022-08-19T11:46:14;100645.00;;;25.40
71463;BMP180;59266;52.608;13.260;2022-08-19T11:48:41;100638.00;;;25.10
71463;BMP180;59266;52.608;13.260;2022-08-19T11:51:10;100648.00;;;25.20
71463;BMP180;59266;52.608;13.260;2022-08-19T11:53:38;100642.00;;;25.00
71463;BMP180;59266;52.608;13.260;2022-08-19T11:56:06;100657.00;;;25.70
71463;BMP180;59266;52.608;13.260;2022-08-19T11:58:33;100653.00;;;25.00
71463;BMP180;59266;52.608;13.260;2022-08-19T12:01:00;100659.00;;;24.50
71463;BMP180;59266;52.608;13.260;2022-08-19T12:03:27;100659.00;;;24.50
71463;BMP180;59266;52.608;13.260;2022-08-19T12:05:54;100662.00;;;24.60
71463;BMP180;59266;52.608;13.260;2022-08-19T12:08:20;100672.00;;;24.60
71463;BMP180;59266;52.608;13.260;2022-08-19T12:10:47;100678.00;;;24.70
71463;BMP180;59266;52.608;13.260;2022-08-19T12:13:14;100667.00;;;24.60
71463;BMP180;59266;52.608;13.260;2022-08-19T12:15:46;100667.00;;;24.80
71463;BMP180;59266;52.608;13.260;2022-08-19T12:18:13;100668.00;;;24.70
71463;BMP180;59266;52.608;13.260;2022-08-19T12:20:42;100670.00;;;24.90
71463;BMP180;59266;52.608;13.260;2022-08-19T12:23:09;100674.00;;;25.00
71463;BMP180;59266;52.608;13.260;2022-08-19T12:25:37;100681.00;;;24.70
71463;BMP180;59266;52.608;13.260;2022-08-19T12:28:04;100681.00;;;24.60
71463;BMP180;59266;52.608;13.260;2022-08-19T12:30:30;100680.00;;;24.70
71463;BMP180;59266;52.608;13.260;2022-08-19T12:32:57;100684.00;;;24.90
71463;BMP180;59266;52.608;13.260;2022-08-19T12:35:23;100686.00;;;24.80
71463;BMP180;59266;52.608;13.260;2022-08-19T12:37:50;100681.00;;;25.00
71463;BMP180;59266;52.608;13.260;2022-08-19T12:40:22;100680.00;;;25.30
71463;BMP180;59266;52.608;13.260;2022-08-19T12:42:51;100682.00;;;25.50
71463;BMP180;59266;52.608;13.260;2022-08-19T12:45:18;100676.00;;;25.20
71463;BMP180;59266;52.608;13.260;2022-08-19T12:47:46;100681.00;;;25.60
71463;BMP180;59266;52.608;13.260;2022-08-19T12:50:14;100683.00;;;25.50
71463;BMP180;59266;52.608;13.260;2022-08-19T12:52:41;100683.00;;;25.30
71463;BMP180;59266;52.608;13.260;2022-08-19T12:55:09;100683.00;;;25.40
71463;BMP180;59266;52.608;13.260;2022-08-19T12:57:35;100680.00;;;25.20
71463;BMP180;59266;52.608;13.260;2022-08-19T13:00:11;100678.00;;;25.60
71463;BMP180;59266;52.608;13.260;2022-08-19T13:02:42;100667.00;;;25.70
71463;BMP180;59266;52.608;13.260;2022-08-19T13:05:18;100670.00;;;26.30
71463;BMP180;59266;52.608;13.260;2022-08-19T13:07:47;100662.00;;;26.70
71463;BMP180;59266;52.608;13.260;2022-08-19T13:10:19;100658.00;;;26.60
71463;BMP180;59266;52.608;13.260;2022-08-19T13:12:48;100661.00;;;27.00
71463;BMP180;59266;52.608;13.260;2022-08-19T13:15:16;100662.00;;;27.10
71463;BMP180;59266;52.608;13.260;2022-08-19T13:17:51;100656.00;;;27.10
71463;BMP180;59266;52.608;13.260;2022-08-19T13:20:20;100646.00;;;26.70
71463;BMP180;59266;52.608;13.260;2022-08-19T13:22:47;100645.00;;;27.30
71463;BMP180;59266;52.608;13.260;2022-08-19T13:25:15;100644.00;;;27.00
71463;BMP180;59266;52.608;13.260;2022-08-19T13:27:44;100655.00;;;27.90
71463;BMP180;59266;52.608;13.260;2022-08-19T13:30:12;100670.00;;;28.10
71463;BMP180;59266;52.608;13.260;2022-08-19T13:32:58;100674.00;;;28.00
71463;BMP180;59266;52.608;13.260;2022-08-19T13:38:12;100666.00;;;27.30
71463;BMP180;59266;52.608;13.260;2022-08-19T13:40:40;100665.00;;;27.00
71463;BMP180;59266;52.608;13.260;2022-08-19T13:43:08;100657.00;;;27.00
71463;BMP180;59266;52.608;13.260;2022-08-19T13:45:53;100644.00;;;27.10
71463;BMP180;59266;52.608;13.260;2022-08-19T13:48:22;100663.00;;;27.90
71463;BMP180;59266;52.608;13.260;2022-08-19T13:50:49;100660.00;;;27.90
71463;BMP180;59266;52.608;13.260;2022-08-19T13:53:17;100665.00;;;27.40
71463;BMP180;59266;52.608;13.260;2022-08-19T13:55:44;100652.00;;;28.20
71463;BMP180;59266;52.608;13.260;2022-08-19T13:58:11;100655.00;;;28.20
71463;BMP180;59266;52.608;13.260;2022-08-19T14:00:45;100653.00;;;27.60
71463;BMP180;59266;52.608;13.260;2022-08-19T14:03:12;100665.00;;;27.30
71463;BMP180;59266;52.608;13.260;2022-08-19T14:05:39;100668.00;;;27.70
71463;BMP180;59266;52.608;13.260;2022-08-19T14:08:06;100664.00;;;27.10
71463;BMP180;59266;52.608;13.260;2022-08-19T14:10:32;100662.00;;;27.30